sensor_id;sensor_type;location;lat;lon;timestamp;temperature;humidity
21481;DHT22;10902;48.158;8.634;2023-07-20T00:00:52;17.60;99.90
21481;DHT22;10902;48.158;8.634;2023-07-20T00:03:39;17.50;99.90
21481;DHT22;10902;48.158;8.634;2023-07-20T00:06:25;17.50;99.90
21481;DHT22;10902;48.158;8.634;2023-07-20T00:09:13;17.40;99.90
21481;DHT22;10902;48.158;8.634;2023-07-20T00:11:58;17.40;99.90
21481;DHT22;10902;48.158;8.634;2023-07-20T00:14:45;17.40;99.90
21481;DHT22;10902;48.158;8.634;2023-07-20T00:17:31;17.30;99.90
21481;DHT22;10902;48.158;8.634;2023-07-20T00:20:17;17.30;99.90
21481;DHT22;10902;48.158;8.634;2023-07-20T00:23:03;17.20;99.90
21481;DHT22;10902;48.158;8.634;2023-07-20T00:25:49;17.20;99.90
21481;DHT22;10902;48.158;8.634;2023-07-20T00:28:35;17.20;99.90
21481;DHT22;10902;48.158;8.634;2023-07-20T00:31:21;17.10;99.90
21481;DHT22;10902;48.158;8.634;2023-07-20T00:34:06;17.10;99.90
21481;DHT22;10902;48.158;8.634;2023-07-20T00:36:52;17.10;99.90
21481;DHT22;10902;48.158;8.634;2023-07-20T00:39:38;17.10;99.90
21481;DHT22;10902;48.158;8.634;2023-07-20T00:42:24;17.00;99.90
21481;DHT22;10902;48.158;8.634;2023-07-20T00:45:09;17.00;99.90
21481;DHT22;10902;48.158;8.634;2023-07-20T00:47:55;17.10;99.90
21481;DHT22;10902;48.158;8.634;2023-07-20T00:50:42;17.10;99.90
21481;DHT22;10902;48.158;8.634;2023-07-20T00:53:28;17.10;99.90
21481;DHT22;10902;48.158;8.634;2023-07-20T00:56:15;17.00;99.90
21481;DHT22;10902;48.158;8.634;2023-07-20T00:59:01;17.00;99.90
21481;DHT22;10902;48.158;8.634;2023-07-20T01:01:47;16.90;99.90
21481;DHT22;10902;48.158;8.634;2023-07-20T01:04:34;16.90;99.90
21481;DHT22;10902;48.158;8.634;2023-07-20T01:07:25;16.80;99.90
21481;DHT22;10902;48.158;8.634;2023-07-20T01:13:20;16.80;99.90
21481;DHT22;10902;48.158;8.634;2023-07-20T01:16:07;16.70;99.90
21481;DHT22;10902;48.158;8.634;2023-07-20T01:18:52;16.70;99.90
21481;DHT22;10902;48.158;8.634;2023-07-20T01:28:12;16.50;99.90
21481;DHT22;10902;48.158;8.634;2023-07-20T01:31:24;16.50;99.90
21481;DHT22;10902;48.158;8.634;2023-07-20T01:34:12;16.40;99.90
21481;DHT22;10902;48.158;8.634;2023-07-20T01:37:01;16.50;99.90
21481;DHT22;10902;48.158;8.634;2023-07-20T01:39:47;16.40;99.90
21481;DHT22;10902;48.158;8.634;2023-07-20T01:42:32;16.40;99.90
21481;DHT22;10902;48.158;8.634;2023-07-20T01:45:18;16.30;99.90
21481;DHT22;10902;48.158;8.634;2023-07-20T01:48:04;16.30;99.90
21481;DHT22;10902;48.158;8.634;2023-07-20T01:50:49;16.30;99.90
21481;DHT22;10902;48.158;8.634;2023-07-20T01:53:35;16.20;99.90
21481;DHT22;10902;48.158;8.634;2023-07-20T01:56:21;16.20;99.90
21481;DHT22;10902;48.158;8.634;2023-07-20T01:59:07;16.20;99.90
21481;DHT22;10902;48.158;8.634;2023-07-20T02:01:53;16.10;99.90
21481;DHT22;10902;48.158;8.634;2023-07-20T02:04:38;16.00;99.90
21481;DHT22;10902;48.158;8.634;2023-07-20T02:07:28;16.00;99.90
21481;DHT22;10902;48.158;8.634;2023-07-20T02:10:17;15.90;99.90
21481;DHT22;10902;48.158;8.634;2023-07-20T02:13:02;15.80;99.90
21481;DHT22;10902;48.158;8.634;2023-07-20T02:15:48;15.70;99.90
21481;DHT22;10902;48.158;8.634;2023-07-20T02:18:36;15.70;99.90
21481;DHT22;10902;48.158;8.634;2023-07-20T02:21:22;15.70;99.90
21481;DHT22;10902;48.158;8.634;2023-07-20T02:24:08;15.60;99.90
21481;DHT22;10902;48.158;8.634;2023-07-20T02:26:54;15.70;99.90
21481;DHT22;10902;48.158;8.634;2023-07-20T02:29:42;15.70;99.90
21481;DHT22;10902;48.158;8.634;2023-07-20T02:32:31;15.70;99.90
21481;DHT22;10902;48.158;8.634;2023-07-20T02:35:20;15.60;99.90
21481;DHT22;10902;48.158;8.634;2023-07-20T02:38:05;15.50;99.90
21481;DHT22;10902;48.158;8.634;2023-07-20T02:40:52;15.40;99.90
21481;DHT22;10902;48.158;8.634;2023-07-20T02:43:40;15.50;99.90
21481;DHT22;10902;48.158;8.634;2023-07-20T02:46:26;15.40;99.90
21481;DHT22;10902;48.158;8.634;2023-07-20T02:49:14;15.40;99.90
21481;DHT22;10902;48.158;8.634;2023-07-20T02:52:05;15.40;99.90
21481;DHT22;10902;48.158;8.634;2023-07-20T02:54:51;15.30;99.90
21481;DHT22;10902;48.158;8.634;2023-07-20T02:57:38;15.40;99.90
21481;DHT22;10902;48.158;8.634;2023-07-20T03:00:27;15.40;99.90
21481;DHT22;10902;48.158;8.634;2023-07-20T03:03:13;15.30;99.90
21481;DHT22;10902;48.158;8.634;2023-07-20T03:05:59;15.30;99.90
21481;DHT22;10902;48.158;8.634;2023-07-20T03:08:44;15.20;99.90
21481;DHT22;10902;48.158;8.634;2023-07-20T03:11:33;15.30;99.90
21481;DHT22;10902;48.158;8.634;2023-07-20T03:14:20;15.40;99.90
21481;DHT22;10902;48.158;8.634;2023-07-20T03:17:10;15.40;99.90
21481;DHT22;10902;48.158;8.634;2023-07-20T03:19:59;15.40;99.90
21481;DHT22;10902;48.158;8.634;2023-07-20T03:22:46;15.40;99.90
21481;DHT22;10902;48.158;8.634;2023-07-20T03:25:32;15.40;99.90
21481;DHT22;10902;48.158;8.634;2023-07-20T03:28:19;15.40;99.90
21481;DHT22;10902;48.158;8.634;2023-07-20T03:31:05;15.40;99.90
21481;DHT22;10902;48.158;8.634;2023-07-20T03:33:51;15.50;99.90
21481;DHT22;10902;48.158;8.634;2023-07-20T03:36:38;15.50;99.90
21481;DHT22;10902;48.158;8.634;2023-07-20T03:39:24;15.40;99.90
21481;DHT22;10902;48.158;8.634;2023-07-20T03:42:10;15.40;99.90
21481;DHT22;10902;48.158;8.634;2023-07-20T03:44:56;15.40;99.90
21481;DHT22;10902;48.158;8.634;2023-07-20T03:47:43;15.50;99.90
21481;DHT22;10902;48.158;8.634;2023-07-20T03:50:30;15.50;99.90
21481;DHT22;10902;48.158;8.634;2023-07-20T03:53:17;15.60;99.90
21481;DHT22;10902;48.158;8.634;2023-07-20T03:56:03;15.60;99.90
21481;DHT22;10902;48.158;8.634;2023-07-20T03:58:49;15.70;99.90
21481;DHT22;10902;48.158;8.634;2023-07-20T04:01:34;15.70;99.90
21481;DHT22;10902;48.158;8.634;2023-07-20T04:04:22;15.80;99.90
21481;DHT22;10902;48.158;8.634;2023-07-20T04:07:08;15.80;99.90
21481;DHT22;10902;48.158;8.634;2023-07-20T04:10:01;15.80;99.90
21481;DHT22;10902;48.158;8.634;2023-07-20T04:12:47;15.90;99.90
21481;DHT22;10902;48.158;8.634;2023-07-20T04:15:32;15.90;99.90
21481;DHT22;10902;48.158;8.634;2023-07-20T04:18:18;15.90;99.90
21481;DHT22;10902;48.158;8.634;2023-07-20T04:21:04;15.90;99.90
21481;DHT22;10902;48.158;8.634;2023-07-20T04:23:55;16.00;99.90
21481;DHT22;10902;48.158;8.634;2023-07-20T04:26:40;16.00;99.90
21481;DHT22;10902;48.158;8.634;2023-07-20T04:29:28;16.00;99.90
21481;DHT22;10902;48.158;8.634;2023-07-20T04:32:14;16.00;99.90
21481;DHT22;10902;48.158;8.634;2023-07-20T04:35:00;16.10;99.90
21481;DHT22;10902;48.158;8.634;2023-07-20T04:37:45;16.10;99.90
21481;DHT22;10902;48.158;8.634;2023-07-20T04:40:33;16.10;99.90
21481;DHT22;10902;48.158;8.634;2023-07-20T04:43:18;16.10;99.90
21481;DHT22;10902;48.158;8.634;2023-07-20T04:46:04;16.10;99.90
21481;DHT22;10902;48.158;8.634;2023-07-20T04:48:50;16.20;99.90
21481;DHT22;10902;48.158;8.634;2023-07-20T04:51:36;16.20;99.90
21481;DHT22;10902;48.158;8.634;2023-07-20T04:54:24;16.20;99.90
21481;DHT22;10902;48.158;8.634;2023-07-20T04:57:11;16.20;99.90
21481;DHT22;10902;48.158;8.634;2023-07-20T04:59:57;16.20;99.90
21481;DHT22;10902;48.158;8.634;2023-07-20T05:02:43;16.30;99.90
21481;DHT22;10902;48.158;8.634;2023-07-20T05:05:32;16.30;99.90
21481;DHT22;10902;48.158;8.634;2023-07-20T05:08:18;16.30;99.90
21481;DHT22;10902;48.158;8.634;2023-07-20T05:11:05;16.30;99.90
21481;DHT22;10902;48.158;8.634;2023-07-20T05:13:52;16.40;99.90
21481;DHT22;10902;48.158;8.634;2023-07-20T05:16:39;16.40;99.90
21481;DHT22;10902;48.158;8.634;2023-07-20T05:19:25;16.40;99.90
21481;DHT22;10902;48.158;8.634;2023-07-20T05:22:13;16.40;99.90
21481;DHT22;10902;48.158;8.634;2023-07-20T05:25:02;16.40;99.90
21481;DHT22;10902;48.158;8.634;2023-07-20T05:27:48;16.40;99.90
21481;DHT22;10902;48.158;8.634;2023-07-20T05:30:35;16.50;99.90
21481;DHT22;10902;48.158;8.634;2023-07-20T05:33:21;16.80;99.90
21481;DHT22;10902;48.158;8.634;2023-07-20T05:36:10;16.80;99.90
21481;DHT22;10902;48.158;8.634;2023-07-20T05:38:56;16.80;99.90
21481;DHT22;10902;48.158;8.634;2023-07-20T05:41:50;17.10;99.90
21481;DHT22;10902;48.158;8.634;2023-07-20T05:44:36;17.00;99.90
21481;DHT22;10902;48.158;8.634;2023-07-20T05:47:27;17.30;99.90
21481;DHT22;10902;48.158;8.634;2023-07-20T05:50:26;17.10;99.90
21481;DHT22;10902;48.158;8.634;2023-07-20T05:53:13;17.10;99.90
21481;DHT22;10902;48.158;8.634;2023-07-20T05:55:59;16.90;99.90
21481;DHT22;10902;48.158;8.634;2023-07-20T05:58:44;16.70;99.90
21481;DHT22;10902;48.158;8.634;2023-07-20T06:01:33;16.60;99.90
21481;DHT22;10902;48.158;8.634;2023-07-20T06:04:20;16.60;99.90
21481;DHT22;10902;48.158;8.634;2023-07-20T06:07:06;16.60;99.90
21481;DHT22;10902;48.158;8.634;2023-07-20T06:09:54;16.60;99.90
21481;DHT22;10902;48.158;8.634;2023-07-20T06:12:44;16.60;99.90
21481;DHT22;10902;48.158;8.634;2023-07-20T06:15:35;16.60;99.90
21481;DHT22;10902;48.158;8.634;2023-07-20T06:18:23;16.60;99.90
21481;DHT22;10902;48.158;8.634;2023-07-20T06:21:09;16.70;99.90
21481;DHT22;10902;48.158;8.634;2023-07-20T06:23:55;16.60;99.90
21481;DHT22;10902;48.158;8.634;2023-07-20T06:26:40;16.60;99.90
21481;DHT22;10902;48.158;8.634;2023-07-20T06:29:29;16.60;99.90
21481;DHT22;10902;48.158;8.634;2023-07-20T06:32:16;16.70;99.90
21481;DHT22;10902;48.158;8.634;2023-07-20T06:35:07;17.10;99.90
21481;DHT22;10902;48.158;8.634;2023-07-20T06:37:54;17.40;99.90
21481;DHT22;10902;48.158;8.634;2023-07-20T06:40:40;17.60;99.90
21481;DHT22;10902;48.158;8.634;2023-07-20T06:43:26;17.60;99.90
21481;DHT22;10902;48.158;8.634;2023-07-20T06:46:12;17.70;99.90
21481;DHT22;10902;48.158;8.634;2023-07-20T06:48:59;18.10;99.90
21481;DHT22;10902;48.158;8.634;2023-07-20T06:51:45;18.30;99.90
21481;DHT22;10902;48.158;8.634;2023-07-20T06:54:35;17.80;99.90
21481;DHT22;10902;48.158;8.634;2023-07-20T06:57:22;17.80;99.90
21481;DHT22;10902;48.158;8.634;2023-07-20T07:00:08;18.10;99.90
21481;DHT22;10902;48.158;8.634;2023-07-20T07:02:54;18.30;99.90
21481;DHT22;10902;48.158;8.634;2023-07-20T07:05:39;18.30;99.90
21481;DHT22;10902;48.158;8.634;2023-07-20T07:08:25;18.60;99.90
21481;DHT22;10902;48.158;8.634;2023-07-20T07:11:14;18.50;99.90
21481;DHT22;10902;48.158;8.634;2023-07-20T07:14:01;18.50;99.90
21481;DHT22;10902;48.158;8.634;2023-07-20T07:16:47;18.60;99.90
21481;DHT22;10902;48.158;8.634;2023-07-20T07:19:35;18.80;99.90
21481;DHT22;10902;48.158;8.634;2023-07-20T07:22:21;18.80;99.90
21481;DHT22;10902;48.158;8.634;2023-07-20T07:25:08;18.80;99.90
21481;DHT22;10902;48.158;8.634;2023-07-20T07:27:54;18.90;99.90
21481;DHT22;10902;48.158;8.634;2023-07-20T07:30:42;19.20;99.90
21481;DHT22;10902;48.158;8.634;2023-07-20T07:33:30;19.40;99.90
21481;DHT22;10902;48.158;8.634;2023-07-20T07:36:20;19.50;99.90
21481;DHT22;10902;48.158;8.634;2023-07-20T07:39:06;19.50;99.90
21481;DHT22;10902;48.158;8.634;2023-07-20T07:41:56;19.20;99.90
21481;DHT22;10902;48.158;8.634;2023-07-20T07:44:43;19.10;99.90
21481;DHT22;10902;48.158;8.634;2023-07-20T07:47:29;19.30;99.90
21481;DHT22;10902;48.158;8.634;2023-07-20T07:50:19;19.20;99.90
21481;DHT22;10902;48.158;8.634;2023-07-20T07:53:05;19.10;99.90
21481;DHT22;10902;48.158;8.634;2023-07-20T07:55:52;18.80;99.90
21481;DHT22;10902;48.158;8.634;2023-07-20T07:58:41;19.20;99.90
21481;DHT22;10902;48.158;8.634;2023-07-20T08:01:32;19.50;99.90
21481;DHT22;10902;48.158;8.634;2023-07-20T08:04:19;19.60;99.90
21481;DHT22;10902;48.158;8.634;2023-07-20T08:07:06;19.70;99.90
21481;DHT22;10902;48.158;8.634;2023-07-20T08:09:55;19.60;99.90
21481;DHT22;10902;48.158;8.634;2023-07-20T08:12:41;19.50;99.90
21481;DHT22;10902;48.158;8.634;2023-07-20T08:15:27;19.60;99.90
21481;DHT22;10902;48.158;8.634;2023-07-20T08:18:18;19.60;99.90
21481;DHT22;10902;48.158;8.634;2023-07-20T08:21:03;19.90;99.90
21481;DHT22;10902;48.158;8.634;2023-07-20T08:23:49;20.30;99.90
21481;DHT22;10902;48.158;8.634;2023-07-20T08:26:36;20.50;99.90
21481;DHT22;10902;48.158;8.634;2023-07-20T08:29:22;20.30;99.90
21481;DHT22;10902;48.158;8.634;2023-07-20T08:32:12;20.00;99.90
21481;DHT22;10902;48.158;8.634;2023-07-20T08:35:00;20.00;99.90
21481;DHT22;10902;48.158;8.634;2023-07-20T08:37:46;20.70;99.90
21481;DHT22;10902;48.158;8.634;2023-07-20T08:40:40;21.40;99.90
21481;DHT22;10902;48.158;8.634;2023-07-20T08:43:27;21.40;99.90
21481;DHT22;10902;48.158;8.634;2023-07-20T08:46:15;21.00;99.90
21481;DHT22;10902;48.158;8.634;2023-07-20T08:49:09;20.30;99.90
21481;DHT22;10902;48.158;8.634;2023-07-20T08:51:59;20.40;99.90
21481;DHT22;10902;48.158;8.634;2023-07-20T08:54:46;20.30;99.90
21481;DHT22;10902;48.158;8.634;2023-07-20T08:57:33;20.90;99.90
21481;DHT22;10902;48.158;8.634;2023-07-20T09:00:20;21.30;99.90
21481;DHT22;10902;48.158;8.634;2023-07-20T09:03:08;21.70;99.90
21481;DHT22;10902;48.158;8.634;2023-07-20T09:05:55;22.20;99.90
21481;DHT22;10902;48.158;8.634;2023-07-20T09:08:46;21.10;99.90
21481;DHT22;10902;48.158;8.634;2023-07-20T09:11:33;20.60;99.90
21481;DHT22;10902;48.158;8.634;2023-07-20T09:14:19;21.00;99.90
21481;DHT22;10902;48.158;8.634;2023-07-20T09:17:05;21.20;99.90
21481;DHT22;10902;48.158;8.634;2023-07-20T09:19:52;21.20;99.90
21481;DHT22;10902;48.158;8.634;2023-07-20T09:22:41;20.90;99.90
21481;DHT22;10902;48.158;8.634;2023-07-20T09:25:27;21.50;99.90
21481;DHT22;10902;48.158;8.634;2023-07-20T09:28:14;21.90;99.90
21481;DHT22;10902;48.158;8.634;2023-07-20T09:31:18;21.30;99.90
21481;DHT22;10902;48.158;8.634;2023-07-20T09:34:04;20.90;99.90
21481;DHT22;10902;48.158;8.634;2023-07-20T09:36:54;21.00;99.90
21481;DHT22;10902;48.158;8.634;2023-07-20T09:39:46;21.30;99.90
21481;DHT22;10902;48.158;8.634;2023-07-20T09:42:32;21.30;99.90
21481;DHT22;10902;48.158;8.634;2023-07-20T09:45:20;22.20;99.90
21481;DHT22;10902;48.158;8.634;2023-07-20T09:48:10;22.70;99.90
21481;DHT22;10902;48.158;8.634;2023-07-20T09:50:56;24.10;99.90
21481;DHT22;10902;48.158;8.634;2023-07-20T09:53:42;24.10;99.90
21481;DHT22;10902;48.158;8.634;2023-07-20T09:56:30;23.80;99.90
21481;DHT22;10902;48.158;8.634;2023-07-20T09:59:16;23.30;99.90
21481;DHT22;10902;48.158;8.634;2023-07-20T10:02:11;22.40;99.90
21481;DHT22;10902;48.158;8.634;2023-07-20T10:05:04;21.90;99.90
21481;DHT22;10902;48.158;8.634;2023-07-20T10:07:51;22.20;99.90
21481;DHT22;10902;48.158;8.634;2023-07-20T10:10:40;22.70;99.90
21481;DHT22;10902;48.158;8.634;2023-07-20T10:13:31;23.00;99.90
21481;DHT22;10902;48.158;8.634;2023-07-20T10:16:31;24.00;99.90
21481;DHT22;10902;48.158;8.634;2023-07-20T10:19:44;24.90;99.90
21481;DHT22;10902;48.158;8.634;2023-07-20T10:22:35;25.10;99.90
21481;DHT22;10902;48.158;8.634;2023-07-20T10:25:23;24.40;99.90
21481;DHT22;10902;48.158;8.634;2023-07-20T10:28:10;24.30;99.90
21481;DHT22;10902;48.158;8.634;2023-07-20T10:30:58;23.60;99.90
21481;DHT22;10902;48.158;8.634;2023-07-20T10:33:46;23.20;99.90
21481;DHT22;10902;48.158;8.634;2023-07-20T10:36:34;24.10;99.90
21481;DHT22;10902;48.158;8.634;2023-07-20T10:39:32;24.90;99.90
21481;DHT22;10902;48.158;8.634;2023-07-20T10:42:19;24.90;99.90
21481;DHT22;10902;48.158;8.634;2023-07-20T10:45:07;23.30;99.90
21481;DHT22;10902;48.158;8.634;2023-07-20T10:47:55;22.80;99.90
21481;DHT22;10902;48.158;8.634;2023-07-20T10:50:43;22.70;99.90
21481;DHT22;10902;48.158;8.634;2023-07-20T10:53:28;22.70;99.90
21481;DHT22;10902;48.158;8.634;2023-07-20T10:56:36;23.80;99.90
21481;DHT22;10902;48.158;8.634;2023-07-20T11:02:10;25.40;99.90
21481;DHT22;10902;48.158;8.634;2023-07-20T11:04:55;24.50;99.90
21481;DHT22;10902;48.158;8.634;2023-07-20T11:07:41;23.10;99.90
21481;DHT22;10902;48.158;8.634;2023-07-20T11:10:27;22.10;99.90
21481;DHT22;10902;48.158;8.634;2023-07-20T11:13:20;24.00;99.90
21481;DHT22;10902;48.158;8.634;2023-07-20T11:16:06;25.90;99.90
21481;DHT22;10902;48.158;8.634;2023-07-20T11:18:52;27.10;99.90
21481;DHT22;10902;48.158;8.634;2023-07-20T11:21:43;28.30;99.90
21481;DHT22;10902;48.158;8.634;2023-07-20T11:24:29;27.40;99.90
21481;DHT22;10902;48.158;8.634;2023-07-20T11:27:15;26.20;99.90
21481;DHT22;10902;48.158;8.634;2023-07-20T11:30:01;24.70;99.90
21481;DHT22;10902;48.158;8.634;2023-07-20T11:32:49;24.20;99.90
21481;DHT22;10902;48.158;8.634;2023-07-20T11:35:42;25.20;99.90
21481;DHT22;10902;48.158;8.634;2023-07-20T11:38:27;25.50;99.90
21481;DHT22;10902;48.158;8.634;2023-07-20T11:41:13;24.30;99.90
21481;DHT22;10902;48.158;8.634;2023-07-20T11:43:59;25.10;99.90
21481;DHT22;10902;48.158;8.634;2023-07-20T11:46:46;25.90;99.90
21481;DHT22;10902;48.158;8.634;2023-07-20T11:49:42;27.10;99.90
21481;DHT22;10902;48.158;8.634;2023-07-20T11:52:28;26.90;99.90
21481;DHT22;10902;48.158;8.634;2023-07-20T11:55:14;27.90;99.90
21481;DHT22;10902;48.158;8.634;2023-07-20T11:58:07;27.90;99.90
21481;DHT22;10902;48.158;8.634;2023-07-20T12:00:55;26.10;99.90
21481;DHT22;10902;48.158;8.634;2023-07-20T12:03:44;24.40;99.90
21481;DHT22;10902;48.158;8.634;2023-07-20T12:06:30;24.90;99.90
21481;DHT22;10902;48.158;8.634;2023-07-20T12:09:17;26.60;99.90
21481;DHT22;10902;48.158;8.634;2023-07-20T12:12:09;27.90;99.90
21481;DHT22;10902;48.158;8.634;2023-07-20T12:15:15;26.90;99.90
21481;DHT22;10902;48.158;8.634;2023-07-20T12:18:02;26.60;99.90
21481;DHT22;10902;48.158;8.634;2023-07-20T12:20:48;27.40;99.90
21481;DHT22;10902;48.158;8.634;2023-07-20T12:23:40;29.10;99.90
21481;DHT22;10902;48.158;8.634;2023-07-20T12:26:28;29.30;99.90
21481;DHT22;10902;48.158;8.634;2023-07-20T12:29:14;27.50;99.90
21481;DHT22;10902;48.158;8.634;2023-07-20T12:31:59;26.90;99.90
21481;DHT22;10902;48.158;8.634;2023-07-20T12:34:45;26.60;99.90
21481;DHT22;10902;48.158;8.634;2023-07-20T12:37:31;27.00;99.90
21481;DHT22;10902;48.158;8.634;2023-07-20T12:40:17;27.90;99.90
21481;DHT22;10902;48.158;8.634;2023-07-20T12:43:03;29.30;99.90
21481;DHT22;10902;48.158;8.634;2023-07-20T12:45:50;30.50;99.90
21481;DHT22;10902;48.158;8.634;2023-07-20T12:48:36;31.50;99.90
21481;DHT22;10902;48.158;8.634;2023-07-20T12:51:26;31.50;99.90
21481;DHT22;10902;48.158;8.634;2023-07-20T12:54:11;29.70;99.90
21481;DHT22;10902;48.158;8.634;2023-07-20T12:56:57;27.40;99.90
21481;DHT22;10902;48.158;8.634;2023-07-20T12:59:43;27.20;99.90
21481;DHT22;10902;48.158;8.634;2023-07-20T13:02:29;27.90;99.90
21481;DHT22;10902;48.158;8.634;2023-07-20T13:05:15;28.60;99.90
21481;DHT22;10902;48.158;8.634;2023-07-20T13:08:01;28.00;99.90
21481;DHT22;10902;48.158;8.634;2023-07-20T13:10:47;29.10;99.90
21481;DHT22;10902;48.158;8.634;2023-07-20T13:13:34;29.50;99.90
21481;DHT22;10902;48.158;8.634;2023-07-20T13:16:19;30.70;99.90
21481;DHT22;10902;48.158;8.634;2023-07-20T13:19:05;31.50;99.90
21481;DHT22;10902;48.158;8.634;2023-07-20T13:21:51;33.10;99.90
21481;DHT22;10902;48.158;8.634;2023-07-20T13:24:36;33.20;99.90
21481;DHT22;10902;48.158;8.634;2023-07-20T13:27:22;33.20;99.90
21481;DHT22;10902;48.158;8.634;2023-07-20T13:30:08;33.40;99.90
21481;DHT22;10902;48.158;8.634;2023-07-20T13:32:55;32.50;99.90
21481;DHT22;10902;48.158;8.634;2023-07-20T13:35:40;31.90;99.90
21481;DHT22;10902;48.158;8.634;2023-07-20T13:38:27;32.20;99.90
21481;DHT22;10902;48.158;8.634;2023-07-20T13:41:12;31.50;99.90
21481;DHT22;10902;48.158;8.634;2023-07-20T13:43:58;31.00;99.90
21481;DHT22;10902;48.158;8.634;2023-07-20T13:46:43;29.30;99.90
21481;DHT22;10902;48.158;8.634;2023-07-20T13:49:29;27.70;99.90
21481;DHT22;10902;48.158;8.634;2023-07-20T13:52:15;27.90;99.90
21481;DHT22;10902;48.158;8.634;2023-07-20T13:55:01;29.80;99.90
21481;DHT22;10902;48.158;8.634;2023-07-20T13:57:47;31.70;99.90
21481;DHT22;10902;48.158;8.634;2023-07-20T14:00:33;32.70;99.80
21481;DHT22;10902;48.158;8.634;2023-07-20T14:03:20;32.60;99.80
21481;DHT22;10902;48.158;8.634;2023-07-20T14:06:05;31.30;99.70
21481;DHT22;10902;48.158;8.634;2023-07-20T14:08:51;29.10;99.90
21481;DHT22;10902;48.158;8.634;2023-07-20T14:11:38;28.90;99.90
21481;DHT22;10902;48.158;8.634;2023-07-20T14:14:23;28.50;99.90
21481;DHT22;10902;48.158;8.634;2023-07-20T14:17:09;30.20;99.90
21481;DHT22;10902;48.158;8.634;2023-07-20T14:19:55;30.40;99.90
21481;DHT22;10902;48.158;8.634;2023-07-20T14:22:40;30.00;99.90
21481;DHT22;10902;48.158;8.634;2023-07-20T14:25:27;30.20;99.90
21481;DHT22;10902;48.158;8.634;2023-07-20T14:28:12;30.90;99.90
21481;DHT22;10902;48.158;8.634;2023-07-20T14:30:58;32.30;99.30
21481;DHT22;10902;48.158;8.634;2023-07-20T14:33:44;33.20;98.80
21481;DHT22;10902;48.158;8.634;2023-07-20T14:36:30;32.80;98.60
21481;DHT22;10902;48.158;8.634;2023-07-20T14:39:15;32.10;98.90
21481;DHT22;10902;48.158;8.634;2023-07-20T14:42:01;31.20;97.90
21481;DHT22;10902;48.158;8.634;2023-07-20T14:44:49;29.00;98.70
21481;DHT22;10902;48.158;8.634;2023-07-20T14:47:34;30.20;99.10
21481;DHT22;10902;48.158;8.634;2023-07-20T14:50:21;32.20;98.60
21481;DHT22;10902;48.158;8.634;2023-07-20T14:53:07;30.90;98.40
21481;DHT22;10902;48.158;8.634;2023-07-20T14:55:52;28.60;99.90
21481;DHT22;10902;48.158;8.634;2023-07-20T14:58:38;29.70;99.60
21481;DHT22;10902;48.158;8.634;2023-07-20T15:01:24;29.60;99.40
21481;DHT22;10902;48.158;8.634;2023-07-20T15:04:09;30.70;99.40
21481;DHT22;10902;48.158;8.634;2023-07-20T15:06:55;30.50;98.60
21481;DHT22;10902;48.158;8.634;2023-07-20T15:09:41;29.90;99.30
21481;DHT22;10902;48.158;8.634;2023-07-20T15:12:27;29.50;99.50
21481;DHT22;10902;48.158;8.634;2023-07-20T15:15:14;28.90;99.90
21481;DHT22;10902;48.158;8.634;2023-07-20T15:18:00;29.20;99.90
21481;DHT22;10902;48.158;8.634;2023-07-20T15:20:45;28.70;99.90
21481;DHT22;10902;48.158;8.634;2023-07-20T15:23:33;28.40;99.90
21481;DHT22;10902;48.158;8.634;2023-07-20T15:26:18;29.30;99.90
21481;DHT22;10902;48.158;8.634;2023-07-20T15:29:04;30.50;99.90
21481;DHT22;10902;48.158;8.634;2023-07-20T15:31:50;31.50;99.40
21481;DHT22;10902;48.158;8.634;2023-07-20T15:34:35;31.10;98.90
21481;DHT22;10902;48.158;8.634;2023-07-20T15:37:21;29.50;99.70
21481;DHT22;10902;48.158;8.634;2023-07-20T15:40:07;29.30;99.50
21481;DHT22;10902;48.158;8.634;2023-07-20T15:42:53;29.90;99.30
21481;DHT22;10902;48.158;8.634;2023-07-20T15:45:39;29.80;98.90
21481;DHT22;10902;48.158;8.634;2023-07-20T15:48:24;28.90;99.60
21481;DHT22;10902;48.158;8.634;2023-07-20T15:51:10;28.50;99.80
21481;DHT22;10902;48.158;8.634;2023-07-20T15:53:56;28.30;99.90
21481;DHT22;10902;48.158;8.634;2023-07-20T15:56:42;28.20;99.90
21481;DHT22;10902;48.158;8.634;2023-07-20T15:59:28;29.50;99.90
21481;DHT22;10902;48.158;8.634;2023-07-20T16:02:14;30.40;99.40
21481;DHT22;10902;48.158;8.634;2023-07-20T16:04:59;30.40;99.40
21481;DHT22;10902;48.158;8.634;2023-07-20T16:07:45;29.40;99.90
21481;DHT22;10902;48.158;8.634;2023-07-20T16:10:31;29.20;99.90
21481;DHT22;10902;48.158;8.634;2023-07-20T16:13:16;28.50;99.90
21481;DHT22;10902;48.158;8.634;2023-07-20T16:16:02;28.40;99.90
21481;DHT22;10902;48.158;8.634;2023-07-20T16:18:49;27.90;99.90
21481;DHT22;10902;48.158;8.634;2023-07-20T16:21:35;28.00;99.90
21481;DHT22;10902;48.158;8.634;2023-07-20T16:24:21;28.30;99.90
21481;DHT22;10902;48.158;8.634;2023-07-20T16:27:07;27.40;99.90
21481;DHT22;10902;48.158;8.634;2023-07-20T16:29:53;27.20;99.90
21481;DHT22;10902;48.158;8.634;2023-07-20T16:32:40;27.60;99.90
21481;DHT22;10902;48.158;8.634;2023-07-20T16:35:29;27.70;99.90
21481;DHT22;10902;48.158;8.634;2023-07-20T16:38:15;27.80;99.90
21481;DHT22;10902;48.158;8.634;2023-07-20T16:41:00;27.50;99.90
21481;DHT22;10902;48.158;8.634;2023-07-20T16:43:46;27.40;99.90
21481;DHT22;10902;48.158;8.634;2023-07-20T16:46:33;27.50;99.90
21481;DHT22;10902;48.158;8.634;2023-07-20T16:49:18;28.00;99.90
21481;DHT22;10902;48.158;8.634;2023-07-20T16:52:04;27.90;99.90
21481;DHT22;10902;48.158;8.634;2023-07-20T16:54:50;27.00;99.90
21481;DHT22;10902;48.158;8.634;2023-07-20T16:57:36;25.70;99.90
21481;DHT22;10902;48.158;8.634;2023-07-20T17:00:23;25.00;99.90
21481;DHT22;10902;48.158;8.634;2023-07-20T17:03:08;24.90;99.90
21481;DHT22;10902;48.158;8.634;2023-07-20T17:05:54;24.90;99.90
21481;DHT22;10902;48.158;8.634;2023-07-20T17:08:40;24.80;99.90
21481;DHT22;10902;48.158;8.634;2023-07-20T17:11:26;24.80;99.90
21481;DHT22;10902;48.158;8.634;2023-07-20T17:14:12;25.00;99.90
21481;DHT22;10902;48.158;8.634;2023-07-20T17:16:58;25.00;99.90
21481;DHT22;10902;48.158;8.634;2023-07-20T17:19:44;25.10;99.90
21481;DHT22;10902;48.158;8.634;2023-07-20T17:22:29;24.80;99.90
21481;DHT22;10902;48.158;8.634;2023-07-20T17:25:15;24.60;99.90
21481;DHT22;10902;48.158;8.634;2023-07-20T17:28:06;24.30;99.90
21481;DHT22;10902;48.158;8.634;2023-07-20T17:30:59;24.20;99.90
21481;DHT22;10902;48.158;8.634;2023-07-20T17:33:46;24.10;99.90
21481;DHT22;10902;48.158;8.634;2023-07-20T17:36:31;24.10;99.90
21481;DHT22;10902;48.158;8.634;2023-07-20T17:39:17;24.00;99.90
21481;DHT22;10902;48.158;8.634;2023-07-20T17:42:03;24.10;99.90
21481;DHT22;10902;48.158;8.634;2023-07-20T17:44:48;23.80;99.90
21481;DHT22;10902;48.158;8.634;2023-07-20T17:47:37;23.70;99.90